Terminal Aerodrome Forecast
Issued by NWS

Home | Current Version | Previous Version | Text Only | Print | Product List | Glossary On
Versions: 1 2 3 4 5 6 7 8 9 10 11 12
000
FTUS45 KRIW 271100
TAFWRL
TAF
KWRL 271120Z 2712/2812 VRB05KT P6SM SCT250
     FM280500 VRB05KT P6SM BKN120
     FM281000 VRB05KT P6SM SCT060 BKN080=

USA.gov is the U.S. government's official web portal to all federal, state and local government web resources and services.